»·PEaware :: SOLAR20 KEND-KEND

SOLAR20 :: KEND-KEND

FLIGHT INFORMATION

Flight Status: Arrived
Operator: Unknown
More flights by this operator :: More flights under this callsign
Pilot: Vance 33rd/8th FTS (21815)
Aircraft: BEECH AIRCRAFT T-6A TEXAN
(TEX2)
More flights by this aircraft type
Origin: KEND Vance AFB
United States
Destination: KEND Vance AFB
United States
More flights between these airports :: More routes between these airports
Route: DF
File this flight plan on PilotEdge
Remarks:
Altitude:
(Current/Filed)
null
Speed:
(Current/Filed)
0kts
Departed: 30-Sep-22 09:04 AM
Arrived: 30-Sep-22 09:54 AM
Distance/Time
Traveled:
0nm/0:50
Distance/Time
To Go:
Arrived

Flight Plot

Page will automatically refresh every two minutes.

Flight plan parsing failed; only flown route is shown


Map Options




Map Legend


Flown Route
Filed Route
Departure Airport
Arrival Airport
Navaid (VOR, NDB)
Fix

Horizontal Profiles

Position Reports

Time Latitude Longitude Heading Altitude Ground
Speed
30-Sep-22 08:53 36.333514 -97.910075 306 1310ft 0kts
30-Sep-22 08:54 36.333514 -97.910075 306 1310ft 0kts
30-Sep-22 08:55 36.333514 -97.910075 306 1310ft 0kts
30-Sep-22 08:56 36.333514 -97.910075 306 1310ft 0kts
30-Sep-22 08:57 36.333514 -97.910075 306 1310ft 0kts
30-Sep-22 08:58 36.333514 -97.910075 306 1310ft 0kts
30-Sep-22 08:59 36.333514 -97.910075 306 1310ft 0kts
30-Sep-22 09:00 36.333514 -97.910075 306 1310ft 0kts
30-Sep-22 09:01 36.333514 -97.910075 306 1310ft 0kts
30-Sep-22 09:02 36.333453 -97.911130 355 1310ft 0kts
30-Sep-22 09:03 36.356555 -97.909292 10 1696ft 172kts
30-Sep-22 09:04 36.401069 -97.899620 7 4535ft 164kts
30-Sep-22 09:05 36.457246 -97.894955 340 5034ft 235kts
30-Sep-22 09:06 36.520263 -97.904996 1 5058ft 233kts
30-Sep-22 09:07 36.586060 -97.901169 3 5032ft 239kts
30-Sep-22 09:08 36.651662 -97.896155 3 5052ft 236kts
30-Sep-22 09:09 36.716385 -97.894150 343 3175ft 230kts
30-Sep-22 09:10 36.738097 -97.962087 272 2294ft 235kts
30-Sep-22 09:11 36.728705 -98.032141 224 2352ft 208kts
30-Sep-22 09:12 36.682124 -98.072429 181 2277ft 217kts
30-Sep-22 09:13 36.650329 -98.109519 295 1843ft 169kts
30-Sep-22 09:14 36.681947 -98.125691 0 1826ft 100kts
30-Sep-22 09:15 36.709109 -98.124830 0 1592ft 97kts
30-Sep-22 09:16 36.732094 -98.123879 1 1203ft 48kts
30-Sep-22 09:17 36.742434 -98.123434 1 1203ft 16kts
30-Sep-22 09:18 36.743757 -98.126173 147 1203ft 12kts
30-Sep-22 09:19 36.741463 -98.125152 184 1203ft 8kts
30-Sep-22 09:20 36.734720 -98.125500 182 1203ft 55kts
30-Sep-22 09:21 36.728880 -98.123927 1 1203ft 8kts
30-Sep-22 09:22 36.760859 -98.121138 51 1880ft 190kts
30-Sep-22 09:23 36.736360 -98.074104 178 2391ft 219kts
30-Sep-22 09:24 36.674793 -98.072754 179 2288ft 213kts
30-Sep-22 09:25 36.654659 -98.114002 303 1834ft 152kts
30-Sep-22 09:26 36.683490 -98.125776 0 1823ft 98kts
30-Sep-22 09:27 36.710911 -98.124605 359 1587ft 96kts
30-Sep-22 09:28 36.738966 -98.123420 1 1409ft 148kts
30-Sep-22 09:29 36.714555 -98.107625 185 2283ft 133kts
30-Sep-22 09:30 36.726940 -98.124006 1 1204ft 73kts
30-Sep-22 09:31 36.763312 -98.109834 85 1652ft 227kts
30-Sep-22 09:32 36.731922 -98.073656 180 2396ft 221kts
30-Sep-22 09:33 36.670077 -98.072804 178 2373ft 216kts
30-Sep-22 09:34 36.657063 -98.116491 313 1858ft 155kts
30-Sep-22 09:35 36.687734 -98.125762 0 1734ft 105kts
30-Sep-22 09:36 36.717986 -98.124525 1 1288ft 102kts
30-Sep-22 09:37 36.748592 -98.122986 2 1476ft 173kts
30-Sep-22 09:38 36.766075 -98.060019 85 2996ft 207kts
30-Sep-22 09:39 36.760055 -97.989293 119 5262ft 217kts
30-Sep-22 09:40 36.724010 -97.919869 122 6109ft 257kts
30-Sep-22 09:41 36.678124 -97.851976 129 6129ft 259kts
30-Sep-22 09:42 36.618994 -97.807909 176 6163ft 253kts
30-Sep-22 09:43 36.547420 -97.800191 175 6042ft 259kts
30-Sep-22 09:44 36.475516 -97.792813 175 6015ft 259kts
30-Sep-22 09:45 36.403786 -97.789929 181 6107ft 255kts
30-Sep-22 09:46 36.332790 -97.793847 185 5187ft 251kts
30-Sep-22 09:47 36.263395 -97.803449 187 5108ft 253kts
30-Sep-22 09:48 36.207508 -97.847202 256 2679ft 237kts
30-Sep-22 09:49 36.224393 -97.899570 351 2344ft 192kts
30-Sep-22 09:50 36.279393 -97.911274 359 2328ft 195kts
30-Sep-22 09:51 36.334118 -97.911344 6 2332ft 194kts
30-Sep-22 09:52 36.321081 -97.905514 312 1772ft 105kts
30-Sep-22 09:53 36.340367 -97.910992 9 1310ft 22kts

Navigation Log

Ident Type
Flight plan parsing failed, navigation log unavailable